Goshen, Indiana
Current Conditions -  °F | °C
As of 10:53 AM on Thursday 29 Jan 2015 (Local Time) from KGSH Reporting Station
Light Rain Light Rain  
Wind Chill: 28°   Ceiling: 2300
Heat Index: 36°   Visibility: 10mi
Dew Point: 30°   Wind: 10mph
Humidity: 79%   Direction: 250°WSW
Pressure: 29.74"   Gusts: NA
Location:  41.59°N, 85.84°W
Report Text: KGSH 291553Z AUTO 25009KT 10SM -RA OVC023 02/M01 A2974 RMK AO2 UPB43E52RAB52 SLP078 P0000 T00221011
Loading
Personal Weather Stations






























Interactive Weather Map New forecast layout! Learn more

10-Day Weather Forecast

Advertisements
Track Severe Weather on mobile